createdAt,value
2019-02-05T00:00:36.050Z,7.80
2019-02-05T00:03:06.565Z,7.20
2019-02-05T00:05:35.963Z,6.33
2019-02-05T00:08:06.853Z,6.13
2019-02-05T00:10:36.322Z,7.17
2019-02-05T00:13:06.219Z,7.73
2019-02-05T00:15:35.979Z,5.33
2019-02-05T00:18:05.319Z,6.43
2019-02-05T00:20:34.519Z,7.30
2019-02-05T00:23:04.647Z,6.27
2019-02-05T00:25:34.006Z,7.93
2019-02-05T00:28:03.485Z,6.83
2019-02-05T00:30:32.768Z,7.70
2019-02-05T00:33:02.131Z,8.27
2019-02-05T00:35:31.697Z,9.50
2019-02-05T00:38:00.781Z,8.13
2019-02-05T00:40:29.522Z,8.17
2019-02-05T00:42:58.460Z,7.67
2019-02-05T00:45:27.488Z,8.53
2019-02-05T00:47:56.387Z,8.10
2019-02-05T00:50:25.238Z,6.17
2019-02-05T00:52:54.251Z,8.00
2019-02-05T00:55:23.047Z,10.73
2019-02-05T00:57:51.831Z,9.00
2019-02-05T01:00:24.071Z,8.47
2019-02-05T01:02:53.013Z,8.87
2019-02-05T01:05:22.111Z,8.53
2019-02-05T01:07:51.392Z,7.93
2019-02-05T01:10:20.479Z,9.47
2019-02-05T01:12:49.582Z,9.90
2019-02-05T01:15:19.157Z,8.77
2019-02-05T01:17:47.987Z,8.87
2019-02-05T01:20:20.402Z,8.23
2019-02-05T01:22:49.723Z,8.10
2019-02-05T01:25:18.961Z,8.70
2019-02-05T01:27:48.671Z,11.27
2019-02-05T01:30:23.537Z,9.53
2019-02-05T01:32:52.835Z,9.77
2019-02-05T01:35:22.196Z,11.57
2019-02-05T01:37:52.449Z,10.37
2019-02-05T01:40:23.469Z,10.73
2019-02-05T01:42:52.477Z,10.53
2019-02-05T01:45:22.949Z,10.00
2019-02-05T01:47:52.332Z,9.80
2019-02-05T01:50:29.266Z,10.73
2019-02-05T01:52:58.099Z,9.57
2019-02-05T01:55:27.017Z,10.17
2019-02-05T01:57:57.270Z,9.97
2019-02-05T02:00:33.194Z,10.07
2019-02-05T02:03:02.312Z,11.93
2019-02-05T02:05:31.518Z,8.97
2019-02-05T02:08:01.070Z,10.43
2019-02-05T02:10:30.520Z,8.90
2019-02-05T02:12:59.744Z,10.47
2019-02-05T02:15:28.833Z,9.60
2019-02-05T02:17:57.749Z,9.13
2019-02-05T02:20:26.827Z,11.17
2019-02-05T02:22:56.059Z,8.67
2019-02-05T02:25:26.668Z,10.73
2019-02-05T02:27:55.531Z,8.97
2019-02-05T02:30:29.037Z,9.20
2019-02-05T02:32:57.891Z,11.37
2019-02-05T02:35:26.781Z,10.37
2019-02-05T02:37:56.277Z,10.70
2019-02-05T02:40:25.110Z,9.87
2019-02-05T02:42:54.013Z,11.07
2019-02-05T02:45:22.947Z,10.27
2019-02-05T02:47:51.822Z,10.57
2019-02-05T02:50:20.770Z,9.47
2019-02-05T02:52:50.166Z,10.30
2019-02-05T02:55:19.207Z,8.50
2019-02-05T02:57:48.442Z,9.67
2019-02-05T03:00:20.562Z,11.40
2019-02-05T03:02:50.527Z,9.33
2019-02-05T03:05:22.375Z,9.00
2019-02-05T03:07:51.405Z,10.07
2019-02-05T03:10:33.184Z,11.37
2019-02-05T03:13:02.202Z,9.83
2019-02-05T03:15:32.328Z,10.50
2019-02-05T03:18:01.388Z,8.93
2019-02-05T03:20:30.687Z,10.37
2019-02-05T03:22:59.615Z,9.20
2019-02-05T03:25:28.676Z,9.30
2019-02-05T03:27:57.577Z,9.77
2019-02-05T03:30:27.363Z,11.97
2019-02-05T03:32:56.698Z,10.23
2019-02-05T03:35:25.702Z,8.60
2019-02-05T03:37:54.553Z,10.73
2019-02-05T03:41:09.208Z,8.43
2019-02-05T03:43:41.906Z,9.20
2019-02-05T03:46:16.121Z,8.77
2019-02-05T03:48:49.511Z,10.23
2019-02-05T03:52:19.760Z,8.73
2019-02-05T03:55:20.240Z,10.57
2019-02-05T03:58:16.237Z,9.43
2019-02-05T04:01:53.526Z,9.43
2019-02-05T04:05:09.384Z,7.93
2019-02-05T04:08:11.466Z,10.57
2019-02-05T04:11:26.916Z,9.07
2019-02-05T04:14:15.273Z,9.07
2019-02-05T04:17:16.059Z,9.83
2019-02-05T04:20:10.613Z,7.83
2019-02-05T04:23:06.895Z,9.27
2019-02-05T04:26:11.974Z,11.23
2019-02-05T04:29:34.138Z,8.27
2019-02-05T04:32:33.091Z,9.77
2019-02-05T04:35:50.321Z,10.93
2019-02-05T04:38:56.984Z,9.87
2019-02-05T04:42:10.409Z,9.77
2019-02-05T04:45:34.106Z,13.40
2019-02-05T04:48:27.334Z,9.07
2019-02-05T04:51:33.375Z,9.80
2019-02-05T04:54:29.737Z,9.57
2019-02-05T04:57:24.926Z,9.10
2019-02-05T05:00:34.686Z,11.77
2019-02-05T05:03:33.739Z,10.23
2019-02-05T05:06:42.549Z,10.43
2019-02-05T05:09:48.432Z,12.83
2019-02-05T05:12:17.670Z,11.83
2019-02-05T05:14:46.637Z,10.97
2019-02-05T05:17:15.558Z,10.50
2019-02-05T05:19:44.620Z,11.73
2019-02-05T05:22:13.464Z,11.47
2019-02-05T05:24:42.869Z,9.57
2019-02-05T05:27:13.407Z,12.00
2019-02-05T05:29:42.886Z,10.33
2019-02-05T05:32:12.061Z,11.13
2019-02-05T05:34:40.848Z,12.03
2019-02-05T05:37:08.264Z,12.73
2019-02-05T05:39:37.046Z,13.70
2019-02-05T05:42:05.843Z,12.37
2019-02-05T05:44:34.626Z,10.03
2019-02-05T05:47:04.046Z,12.17
2019-02-05T05:49:32.868Z,10.80
2019-02-05T05:52:01.764Z,12.40
2019-02-05T05:54:30.594Z,11.20
2019-02-05T05:56:59.486Z,10.97
2019-02-05T05:59:28.493Z,12.63
2019-02-05T06:01:57.226Z,11.37
2019-02-05T06:04:26.375Z,12.60
2019-02-05T06:06:55.263Z,12.50
2019-02-05T06:09:24.060Z,11.83
2019-02-05T06:11:52.935Z,11.67
2019-02-05T06:14:21.662Z,13.00
2019-02-05T06:16:50.597Z,15.40
2019-02-05T06:19:20.376Z,12.70
2019-02-05T06:21:49.232Z,13.60
2019-02-05T06:24:18.051Z,16.07
2019-02-05T06:26:46.897Z,12.07
2019-02-05T06:29:15.821Z,11.47
2019-02-05T06:31:44.686Z,12.80
2019-02-05T06:34:14.731Z,15.67
2019-02-05T06:36:43.794Z,13.30
2019-02-05T06:39:12.549Z,15.70
2019-02-05T06:41:41.620Z,14.37
2019-02-05T06:44:10.471Z,18.07
2019-02-05T06:46:39.240Z,16.70
2019-02-05T06:49:08.122Z,19.73
2019-02-05T06:51:37.058Z,17.10
2019-02-05T06:54:06.106Z,15.97
2019-02-05T06:56:35.300Z,16.13
2019-02-05T06:59:04.586Z,17.47
2019-02-05T07:01:33.472Z,15.33
2019-02-05T07:04:02.279Z,17.07
2019-02-05T07:06:31.037Z,20.03
2019-02-05T07:09:00.350Z,19.07
2019-02-05T07:11:29.352Z,15.93
2019-02-05T07:13:58.338Z,19.53
2019-02-05T07:16:27.325Z,18.13
2019-02-05T07:18:56.232Z,16.10
2019-02-05T07:21:25.228Z,19.83
2019-02-05T07:23:54.947Z,22.30
2019-02-05T07:26:24.417Z,22.03
2019-02-05T07:28:58.901Z,24.87
2019-02-05T07:31:24.260Z,21.73
2019-02-05T07:33:53.014Z,21.70
2019-02-05T07:36:22.131Z,20.80
2019-02-05T07:38:51.032Z,20.77
2019-02-05T07:41:19.872Z,24.33
2019-02-05T07:43:49.152Z,18.47
2019-02-05T07:46:18.023Z,22.97
2019-02-05T07:48:47.087Z,19.47
2019-02-05T07:51:16.054Z,19.87
2019-02-05T07:53:45.097Z,19.50
2019-02-05T07:56:14.111Z,25.07
2019-02-05T07:58:42.848Z,21.63
2019-02-05T08:01:12.492Z,23.03
2019-02-05T08:03:41.229Z,21.87
2019-02-05T08:06:10.329Z,24.00
2019-02-05T08:08:39.433Z,22.37
2019-02-05T08:11:08.599Z,22.57
2019-02-05T08:13:37.292Z,23.57
2019-02-05T08:16:06.256Z,20.90
2019-02-05T08:18:35.180Z,22.90
2019-02-05T08:21:04.620Z,24.47
2019-02-05T08:23:33.585Z,25.60
2019-02-05T08:26:02.484Z,24.33
2019-02-05T08:28:40.655Z,24.90
2019-02-05T08:31:02.600Z,25.20
2019-02-05T08:33:31.384Z,29.43
2019-02-05T08:36:00.491Z,25.30
2019-02-05T08:38:29.561Z,26.47
2019-02-05T08:40:58.893Z,30.90
2019-02-05T08:43:27.648Z,27.33
2019-02-05T08:45:57.116Z,25.47
2019-02-05T08:48:25.930Z,28.80
2019-02-05T08:50:54.780Z,29.20
2019-02-05T08:53:23.587Z,26.30
2019-02-05T08:55:52.509Z,27.97
2019-02-05T08:58:30.644Z,28.03
2019-02-05T09:00:51.987Z,33.83
2019-02-05T09:03:20.864Z,29.60
2019-02-05T09:05:49.671Z,26.70
2019-02-05T09:08:18.727Z,32.10
2019-02-05T09:10:47.711Z,26.27
2019-02-05T09:13:16.453Z,33.10
2019-02-05T09:15:45.234Z,27.33
2019-02-05T09:18:14.113Z,31.23
2019-02-05T09:20:42.894Z,24.87
2019-02-05T09:23:14.224Z,27.93
2019-02-05T09:25:42.349Z,27.70
2019-02-05T09:28:12.860Z,26.37
2019-02-05T09:30:42.483Z,26.97
2019-02-05T09:33:13.339Z,30.10
2019-02-05T09:35:42.215Z,25.53
2019-02-05T09:38:11.502Z,26.17
2019-02-05T09:40:40.678Z,27.33
2019-02-05T09:43:09.543Z,31.27
2019-02-05T09:45:38.637Z,30.40
2019-02-05T09:48:07.867Z,27.93
2019-02-05T09:50:44.212Z,27.60
2019-02-05T09:53:07.320Z,23.97
2019-02-05T09:55:36.536Z,28.50
2019-02-05T09:58:06.348Z,26.97
2019-02-05T10:00:39.135Z,23.00
2019-02-05T10:03:09.515Z,25.57
2019-02-05T10:05:38.744Z,21.53
2019-02-05T10:08:07.798Z,21.60
2019-02-05T10:10:36.633Z,21.10
2019-02-05T10:13:08.430Z,16.97
2019-02-05T10:15:39.297Z,19.00
2019-02-05T10:18:12.591Z,18.70
2019-02-05T10:20:41.551Z,14.93
2019-02-05T10:23:10.922Z,16.50
2019-02-05T10:25:40.181Z,15.87
2019-02-05T10:28:09.245Z,15.87
2019-02-05T10:30:44.157Z,19.80
2019-02-05T10:33:13.301Z,21.00
2019-02-05T10:35:42.785Z,15.53
2019-02-05T10:38:11.578Z,15.67
2019-02-05T10:40:40.764Z,18.60
2019-02-05T10:43:09.780Z,20.33
2019-02-05T10:45:38.962Z,18.10
2019-02-05T10:48:10.837Z,20.53
2019-02-05T10:50:41.026Z,21.20
2019-02-05T10:53:09.931Z,20.90
2019-02-05T10:55:38.739Z,21.07
2019-02-05T10:58:45.711Z,20.53
2019-02-05T11:01:21.762Z,22.43
2019-02-05T11:04:01.945Z,20.23
2019-02-05T11:06:41.686Z,22.80
2019-02-05T11:09:27.693Z,19.77
2019-02-05T11:12:15.789Z,16.63
2019-02-05T11:14:51.286Z,21.10
2019-02-05T11:17:34.638Z,19.53
2019-02-05T11:20:12.306Z,17.03
2019-02-05T11:22:57.704Z,17.20
2019-02-05T11:25:37.147Z,19.87
2019-02-05T11:28:47.958Z,18.17
2019-02-05T11:34:36.301Z,21.63
2019-02-05T11:37:43.336Z,18.23
2019-02-05T11:40:30.032Z,16.73
2019-02-05T11:43:19.356Z,16.63
2019-02-05T11:46:15.772Z,21.37
2019-02-05T11:49:15.563Z,15.20
2019-02-05T11:55:01.569Z,19.37
2019-02-05T11:57:40.063Z,18.57
2019-02-05T12:00:38.336Z,18.97
2019-02-05T12:06:21.297Z,16.63
2019-02-05T12:09:10.867Z,19.57
2019-02-05T12:12:54.876Z,14.83
2019-02-05T12:15:45.291Z,16.60
2019-02-05T12:18:28.564Z,19.07
2019-02-05T12:20:57.994Z,17.63
2019-02-05T12:23:27.042Z,18.13
2019-02-05T12:25:55.827Z,18.53
2019-02-05T12:28:24.696Z,17.30
2019-02-05T12:31:22.835Z,16.60
2019-02-05T12:33:57.693Z,18.17
2019-02-05T12:36:38.533Z,20.40
2019-02-05T12:39:22.794Z,19.77
2019-02-05T12:42:03.069Z,22.27
2019-02-05T12:45:10.998Z,22.03
2019-02-05T12:47:49.926Z,19.23
2019-02-05T12:50:30.162Z,22.53
2019-02-05T12:53:19.905Z,25.10
2019-02-05T12:55:53.554Z,20.60
2019-02-05T12:59:03.269Z,19.97
2019-02-05T13:01:55.012Z,22.30
2019-02-05T13:05:07.478Z,18.63
2019-02-05T13:08:08.257Z,19.77
2019-02-05T13:11:28.397Z,21.93
2019-02-05T13:14:37.461Z,22.17
2019-02-05T13:17:22.107Z,22.87
2019-02-05T13:20:04.701Z,18.03
2019-02-05T13:22:36.494Z,22.53
2019-02-05T13:30:25.225Z,22.00
2019-02-05T13:32:39.414Z,19.73
2019-02-05T13:35:31.014Z,25.07
2019-02-05T13:38:20.010Z,21.27
2019-02-05T13:41:20.397Z,22.83
2019-02-05T13:44:15.803Z,23.17
2019-02-05T13:47:06.565Z,24.00
2019-02-05T13:50:01.582Z,22.27
2019-02-05T13:56:12.830Z,25.63
2019-02-05T13:59:10.061Z,24.27
2019-02-05T14:01:44.572Z,23.07
2019-02-05T14:04:39.156Z,22.63
2019-02-05T14:07:23.868Z,23.13
2019-02-05T14:10:12.829Z,23.07
2019-02-05T14:16:29.646Z,24.77
2019-02-05T14:19:29.229Z,23.10
2019-02-05T14:22:13.835Z,25.47
2019-02-05T14:25:05.996Z,22.90
2019-02-05T14:27:52.814Z,24.07
2019-02-05T14:31:08.661Z,24.27
2019-02-05T14:34:00.935Z,24.53
2019-02-05T14:36:51.211Z,28.07
2019-02-05T14:39:26.332Z,28.80
2019-02-05T14:42:34.339Z,24.90
2019-02-05T14:45:02.105Z,23.93
2019-02-05T14:47:46.464Z,23.53
2019-02-05T14:51:29.028Z,24.77
2019-02-05T14:56:32.441Z,26.37
2019-02-05T14:59:35.057Z,23.70
2019-02-05T15:02:13.221Z,23.37
2019-02-05T15:05:13.209Z,28.53
2019-02-05T15:08:00.607Z,24.40
2019-02-05T15:14:36.508Z,25.37
2019-02-05T15:17:17.273Z,25.90
2019-02-05T15:20:05.909Z,27.27
2019-02-05T15:22:45.880Z,28.83
2019-02-05T15:25:57.358Z,27.97
2019-02-05T15:28:42.478Z,27.57
2019-02-05T15:31:22.627Z,23.47
2019-02-05T15:34:20.428Z,24.70
2019-02-05T15:37:22.868Z,26.53
2019-02-05T15:40:11.253Z,30.83
2019-02-05T15:42:49.381Z,29.83
2019-02-05T15:45:23.916Z,28.47
2019-02-05T15:48:12.929Z,31.40
2019-02-05T15:51:03.308Z,27.03
2019-02-05T15:53:57.920Z,28.93
2019-02-05T15:56:36.932Z,27.67
2019-02-05T15:59:26.731Z,26.47
2019-02-05T16:02:06.434Z,28.83
2019-02-05T16:05:09.903Z,30.30
2019-02-05T16:08:23.352Z,27.83
2019-02-05T16:10:57.965Z,32.43
2019-02-05T16:13:48.630Z,30.03
2019-02-05T16:16:30.108Z,31.53
2019-02-05T16:19:30.106Z,30.37
2019-02-05T16:22:26.521Z,28.23
2019-02-05T16:28:23.880Z,28.47
2019-02-05T16:31:38.513Z,27.77
2019-02-05T16:34:07.381Z,29.33
2019-02-05T16:36:49.331Z,31.13
2019-02-05T16:39:26.801Z,29.00
2019-02-05T16:42:11.672Z,29.23
2019-02-05T16:44:52.944Z,27.13
2019-02-05T16:47:44.554Z,30.67
2019-02-05T16:50:29.322Z,28.93
2019-02-05T16:53:02.928Z,31.83
2019-02-05T16:56:05.578Z,29.30
2019-02-05T16:58:48.386Z,32.47
2019-02-05T17:01:46.276Z,28.53
2019-02-05T17:04:41.424Z,30.50
2019-02-05T17:07:33.376Z,31.30
2019-02-05T17:10:25.927Z,31.50
2019-02-05T17:13:01.313Z,29.83
2019-02-05T17:15:53.151Z,30.40
2019-02-05T17:18:37.752Z,29.83
2019-02-05T17:21:18.254Z,31.73
2019-02-05T17:24:01.072Z,28.97
2019-02-05T17:26:44.077Z,29.63
2019-02-05T17:29:50.093Z,30.07
2019-02-05T17:32:25.995Z,30.23
2019-02-05T17:35:06.698Z,23.83
2019-02-05T17:38:05.220Z,26.50
2019-02-05T17:40:50.303Z,29.80
2019-02-05T17:43:36.212Z,24.03
2019-02-05T17:46:42.291Z,26.77
2019-02-05T17:49:21.619Z,21.67
2019-02-05T17:55:12.069Z,22.53
2019-02-05T17:57:51.077Z,24.33
2019-02-05T18:00:48.199Z,26.03
2019-02-05T18:03:32.066Z,24.23
2019-02-05T18:06:10.661Z,27.10
2019-02-05T18:09:13.080Z,24.87
2019-02-05T18:12:17.898Z,25.67
2019-02-05T18:14:57.741Z,23.33
2019-02-05T18:17:30.424Z,25.93
2019-02-05T18:20:19.661Z,26.93
2019-02-05T18:23:08.263Z,23.73
2019-02-05T18:26:03.824Z,23.70
2019-02-05T18:29:03.009Z,23.77
2019-02-05T18:32:00.914Z,20.63
2019-02-05T18:34:42.956Z,22.73
2019-02-05T18:37:56.539Z,22.93
2019-02-05T18:41:09.791Z,21.70
2019-02-05T18:43:49.792Z,24.40
2019-02-05T18:46:50.275Z,23.20
2019-02-05T18:49:33.452Z,24.03
2019-02-05T18:52:02.105Z,25.03
2019-02-05T18:54:31.343Z,22.23
2019-02-05T18:57:00.098Z,22.80
2019-02-05T18:59:29.501Z,22.93
2019-02-05T19:01:58.866Z,21.97
2019-02-05T19:04:29.912Z,20.77
2019-02-05T19:06:58.765Z,23.53
2019-02-05T19:09:27.649Z,32.90
2019-02-05T19:11:56.710Z,163.30
2019-02-05T19:14:25.484Z,32.50
2019-02-05T19:16:54.845Z,21.27
2019-02-05T19:19:23.641Z,20.67
2019-02-05T19:21:52.386Z,19.67
2019-02-05T19:24:36.666Z,21.63
2019-02-05T19:27:05.782Z,21.17
2019-02-05T19:29:35.119Z,22.83
2019-02-05T19:32:04.341Z,21.53
2019-02-05T19:34:33.826Z,22.57
2019-02-05T19:37:03.680Z,22.17
2019-02-05T19:39:32.479Z,22.40
2019-02-05T19:42:02.530Z,18.33
2019-02-05T19:44:32.050Z,21.87
2019-02-05T19:47:04.233Z,20.97
2019-02-05T19:49:45.746Z,18.63
2019-02-05T19:52:14.574Z,20.57
2019-02-05T19:54:43.624Z,20.40
2019-02-05T19:57:15.332Z,20.87
2019-02-05T19:59:44.369Z,18.63
2019-02-05T20:02:13.107Z,21.10
2019-02-05T20:04:42.340Z,19.07
2019-02-05T20:07:11.224Z,21.87
2019-02-05T20:09:39.983Z,20.87
2019-02-05T20:12:08.893Z,23.10
2019-02-05T20:14:37.612Z,22.73
2019-02-05T20:17:06.804Z,21.03
2019-02-05T20:19:35.676Z,23.00
2019-02-05T20:22:04.619Z,22.57
2019-02-05T20:24:33.450Z,21.53
2019-02-05T20:27:02.822Z,23.10
2019-02-05T20:29:31.742Z,22.27
2019-02-05T20:32:00.559Z,21.10
2019-02-05T20:34:29.457Z,19.97
2019-02-05T20:36:58.375Z,21.67
2019-02-05T20:39:27.111Z,20.17
2019-02-05T20:41:56.167Z,25.20
2019-02-05T20:44:24.944Z,20.97
2019-02-05T20:46:53.868Z,19.33
2019-02-05T20:49:23.115Z,20.47
2019-02-05T20:51:52.318Z,37.00
2019-02-05T20:54:21.185Z,20.70
2019-02-05T20:56:50.038Z,21.67
2019-02-05T20:59:18.811Z,22.13
2019-02-05T21:01:48.020Z,21.37
2019-02-05T21:04:16.816Z,19.50
2019-02-05T21:06:45.701Z,22.93
2019-02-05T21:09:21.764Z,21.23
2019-02-05T21:11:51.301Z,21.70
2019-02-05T21:14:20.424Z,18.13
2019-02-05T21:16:59.901Z,21.70
2019-02-05T21:19:29.135Z,21.50
2019-02-05T21:22:00.478Z,23.17
2019-02-05T21:24:32.576Z,20.33
2019-02-05T21:27:01.393Z,22.77
2019-02-05T21:29:30.277Z,22.63
2019-02-05T21:32:06.708Z,23.50
2019-02-05T21:34:35.873Z,22.97
2019-02-05T21:37:04.738Z,22.20
2019-02-05T21:39:33.553Z,22.67
2019-02-05T21:42:03.353Z,22.40
2019-02-05T21:44:32.088Z,25.17
2019-02-05T21:47:01.159Z,26.43
2019-02-05T21:49:30.516Z,27.47
2019-02-05T21:51:59.262Z,26.87
2019-02-05T21:54:28.052Z,24.77
2019-02-05T21:56:57.199Z,25.50
2019-02-05T21:59:25.955Z,56.77
2019-02-05T22:01:54.864Z,40.60
2019-02-05T22:04:27.029Z,34.37
2019-02-05T22:06:54.616Z,23.17
2019-02-05T22:09:23.875Z,25.53
2019-02-05T22:11:53.274Z,23.90
2019-02-05T22:14:29.389Z,27.70
2019-02-05T22:16:58.722Z,24.00
2019-02-05T22:19:40.408Z,25.87
2019-02-05T22:22:10.066Z,24.10
2019-02-05T22:24:41.471Z,24.20
2019-02-05T22:27:13.731Z,25.10
2019-02-05T22:29:43.173Z,26.80
2019-02-05T22:32:18.454Z,25.87
2019-02-05T22:34:48.408Z,25.37
2019-02-05T22:37:20.702Z,24.07
2019-02-05T22:39:53.538Z,22.60
2019-02-05T22:42:22.653Z,21.80
2019-02-05T22:44:55.859Z,22.37
2019-02-05T22:47:26.558Z,24.40
2019-02-05T22:49:55.410Z,23.50
2019-02-05T22:52:25.960Z,19.57
2019-02-05T22:54:54.960Z,25.80
2019-02-05T22:57:23.840Z,19.37
2019-02-05T22:59:53.129Z,18.50
2019-02-05T23:02:22.428Z,19.23
2019-02-05T23:05:15.667Z,18.97
2019-02-05T23:07:44.945Z,17.23
2019-02-05T23:10:51.663Z,18.73
2019-02-05T23:13:21.423Z,17.60
2019-02-05T23:16:15.457Z,15.33
2019-02-05T23:22:25.121Z,13.90
2019-02-05T23:24:54.127Z,15.07
2019-02-05T23:27:23.520Z,18.13
2019-02-05T23:29:52.314Z,15.97
2019-02-05T23:32:21.188Z,14.73
2019-02-05T23:34:49.968Z,14.73
2019-02-05T23:37:18.940Z,11.40
2019-02-05T23:39:47.636Z,13.10
2019-02-05T23:42:16.607Z,12.87
2019-02-05T23:44:45.642Z,12.83
2019-02-05T23:47:14.593Z,12.13
2019-02-05T23:49:43.700Z,11.23
2019-02-05T23:52:12.408Z,10.70
2019-02-05T23:54:41.208Z,10.97
2019-02-05T23:57:10.083Z,13.97
2019-02-05T23:59:39.148Z,10.07
